createdAt,value
2023-02-22T00:01:35.918Z,8.26
2023-02-22T00:04:05.330Z,8.24
2023-02-22T00:06:32.866Z,8.22
2023-02-22T00:09:02.495Z,8.22
2023-02-22T00:11:31.667Z,8.17
2023-02-22T00:13:58.538Z,8.17
2023-02-22T00:16:26.771Z,8.16
2023-02-22T00:18:54.169Z,8.15
2023-02-22T00:21:21.372Z,8.12
2023-02-22T00:23:49.030Z,8.10
2023-02-22T00:26:18.567Z,8.04
2023-02-22T00:28:51.002Z,7.95
2023-02-22T00:31:18.921Z,7.87
2023-02-22T00:33:46.289Z,7.75
2023-02-22T00:36:13.743Z,7.58
2023-02-22T00:38:41.914Z,7.50
2023-02-22T00:41:09.410Z,7.43
2023-02-22T00:43:36.227Z,7.32
2023-02-22T00:46:03.060Z,7.25
2023-02-22T00:48:29.854Z,7.22
2023-02-22T00:50:56.665Z,7.18
2023-02-22T00:53:24.615Z,7.14
2023-02-22T00:55:52.030Z,7.14
2023-02-22T00:58:18.849Z,7.13
2023-02-22T01:00:46.538Z,7.08
2023-02-22T01:03:15.462Z,7.01
2023-02-22T01:05:43.069Z,6.99
2023-02-22T01:08:13.043Z,6.97
2023-02-22T01:10:40.724Z,6.92
2023-02-22T01:13:09.587Z,6.88
2023-02-22T01:15:38.161Z,6.82
2023-02-22T01:18:05.382Z,6.79
2023-02-22T01:20:32.727Z,6.80
2023-02-22T01:23:01.430Z,6.75
2023-02-22T01:25:30.680Z,6.74
2023-02-22T01:28:02.659Z,6.73
2023-02-22T01:30:33.328Z,6.72
2023-02-22T01:33:02.095Z,6.73
2023-02-22T01:35:32.921Z,6.69
2023-02-22T01:37:59.756Z,6.69
2023-02-22T01:40:33.375Z,6.66
2023-02-22T01:43:16.169Z,6.65
2023-02-22T01:45:50.245Z,6.64
2023-02-22T01:48:40.963Z,6.63
2023-02-22T01:51:30.067Z,6.63
2023-02-22T01:54:04.868Z,6.60
2023-02-22T01:56:34.617Z,6.59
2023-02-22T01:59:10.381Z,6.59
2023-02-22T02:01:40.098Z,6.53
2023-02-22T02:04:13.142Z,6.50
2023-02-22T02:06:42.438Z,6.50
2023-02-22T02:09:20.627Z,6.50
2023-02-22T02:11:48.639Z,6.49
2023-02-22T02:14:15.734Z,6.45
2023-02-22T02:16:46.258Z,6.46
2023-02-22T02:19:22.447Z,6.47
2023-02-22T02:22:21.354Z,6.53
2023-02-22T02:25:06.880Z,6.54
2023-02-22T02:27:55.222Z,6.55
2023-02-22T02:31:07.856Z,6.58
2023-02-22T02:33:38.092Z,6.53
2023-02-22T02:36:30.453Z,6.55
2023-02-22T02:39:25.922Z,6.46
2023-02-22T02:41:53.118Z,6.44
2023-02-22T02:44:41.622Z,6.37
2023-02-22T02:47:46.442Z,6.33
2023-02-22T02:50:24.968Z,6.31
2023-02-22T02:52:55.574Z,6.27
2023-02-22T02:55:22.655Z,6.31
2023-02-22T02:57:49.368Z,6.28
2023-02-22T03:03:31.233Z,6.30
2023-02-22T03:06:05.242Z,6.28
2023-02-22T03:08:57.282Z,6.27
2023-02-22T03:11:48.657Z,6.29
2023-02-22T03:14:25.417Z,6.28
2023-02-22T03:17:02.077Z,6.30
2023-02-22T03:19:28.770Z,6.32
2023-02-22T03:21:58.532Z,6.34
2023-02-22T03:24:37.506Z,6.34
2023-02-22T03:27:21.863Z,6.32
2023-02-22T03:29:52.018Z,6.24
2023-02-22T03:32:25.862Z,6.19
2023-02-22T03:35:06.670Z,6.18
2023-02-22T03:37:38.374Z,6.13
2023-02-22T03:40:17.568Z,6.05
2023-02-22T03:42:51.997Z,5.99
2023-02-22T03:45:21.319Z,5.98
2023-02-22T03:47:51.831Z,5.98
2023-02-22T03:50:22.250Z,5.97
2023-02-22T03:52:49.262Z,5.97
2023-02-22T03:55:17.862Z,5.97
2023-02-22T03:57:51.624Z,5.90
2023-02-22T04:00:26.600Z,5.89
2023-02-22T04:02:53.531Z,5.89
2023-02-22T04:05:20.363Z,5.91
2023-02-22T04:07:47.137Z,5.92
2023-02-22T04:10:16.157Z,5.92
2023-02-22T04:12:43.899Z,5.92
2023-02-22T04:15:15.631Z,5.91
2023-02-22T04:17:42.489Z,5.93
2023-02-22T04:20:10.175Z,5.95
2023-02-22T04:22:36.826Z,5.97
2023-02-22T04:25:03.600Z,5.95
2023-02-22T04:27:30.338Z,5.91
2023-02-22T04:29:57.057Z,5.88
2023-02-22T04:32:23.842Z,5.84
2023-02-22T04:34:50.555Z,5.82
2023-02-22T04:37:17.293Z,5.84
2023-02-22T04:39:44.088Z,5.83
2023-02-22T04:42:10.839Z,5.79
2023-02-22T04:44:37.601Z,5.80
2023-02-22T04:47:04.425Z,5.76
2023-02-22T04:49:31.106Z,5.71
2023-02-22T04:51:57.794Z,5.72
2023-02-22T04:54:24.534Z,5.68
2023-02-22T04:56:52.256Z,5.65
2023-02-22T04:59:19.882Z,5.63
2023-02-22T05:01:46.751Z,5.64
2023-02-22T05:04:13.487Z,5.62
2023-02-22T05:06:40.536Z,5.58
2023-02-22T05:09:07.291Z,5.56
2023-02-22T05:11:34.131Z,5.54
2023-02-22T05:14:00.970Z,5.54
2023-02-22T05:16:27.961Z,5.52
2023-02-22T05:18:54.705Z,5.51
2023-02-22T05:21:21.583Z,5.47
2023-02-22T05:23:49.503Z,5.46
2023-02-22T05:26:16.329Z,5.46
2023-02-22T05:28:43.032Z,5.46
2023-02-22T05:31:09.886Z,5.49
2023-02-22T05:33:36.716Z,5.49
2023-02-22T05:36:04.686Z,5.49
2023-02-22T05:38:31.411Z,5.46
2023-02-22T05:40:58.172Z,5.44
2023-02-22T05:43:25.940Z,5.42
2023-02-22T05:45:52.677Z,5.41
2023-02-22T05:48:21.274Z,5.40
2023-02-22T05:50:50.005Z,5.40
2023-02-22T05:53:16.784Z,5.39
2023-02-22T05:55:45.588Z,5.36
2023-02-22T05:58:13.093Z,5.33
2023-02-22T06:00:39.817Z,5.33
2023-02-22T06:03:08.657Z,5.32
2023-02-22T06:05:36.294Z,5.30
2023-02-22T06:08:04.509Z,5.28
2023-02-22T06:10:31.451Z,5.25
2023-02-22T06:12:59.365Z,5.25
2023-02-22T06:15:27.519Z,5.24
2023-02-22T06:17:56.543Z,5.21
2023-02-22T06:20:24.605Z,5.20
2023-02-22T06:22:54.177Z,5.17
2023-02-22T06:25:24.292Z,5.14
2023-02-22T06:27:51.465Z,5.09
2023-02-22T06:30:21.475Z,5.07
2023-02-22T06:32:48.293Z,5.05
2023-02-22T06:35:15.772Z,5.05
2023-02-22T06:37:42.567Z,5.06
2023-02-22T06:40:11.370Z,5.06
2023-02-22T06:42:38.971Z,5.06
2023-02-22T06:45:06.048Z,5.08
2023-02-22T06:47:32.819Z,5.14
2023-02-22T06:50:01.070Z,5.19
2023-02-22T06:52:27.782Z,5.15
2023-02-22T06:54:54.554Z,5.15
2023-02-22T06:57:21.366Z,5.17
2023-02-22T06:59:48.077Z,5.14
2023-02-22T07:02:15.080Z,5.11
2023-02-22T07:04:45.565Z,5.06
2023-02-22T07:07:12.280Z,5.01
2023-02-22T07:09:39.041Z,4.95
2023-02-22T07:12:05.846Z,4.97
2023-02-22T07:14:32.589Z,4.88
2023-02-22T07:16:59.282Z,4.82
2023-02-22T07:19:26.032Z,4.74
2023-02-22T07:21:59.309Z,4.74
2023-02-22T07:24:28.621Z,4.72
2023-02-22T07:26:55.446Z,4.71
2023-02-22T07:29:22.621Z,4.68
2023-02-22T07:31:49.675Z,4.63
2023-02-22T07:34:16.540Z,4.54
2023-02-22T07:36:43.397Z,4.50
2023-02-22T07:39:11.191Z,4.48
2023-02-22T07:41:37.916Z,4.43
2023-02-22T07:44:04.942Z,4.41
2023-02-22T07:46:31.681Z,4.40
2023-02-22T07:48:58.381Z,4.39
2023-02-22T07:51:25.207Z,4.40
2023-02-22T07:53:51.916Z,4.37
2023-02-22T07:56:18.836Z,4.36
2023-02-22T07:58:45.638Z,4.37
2023-02-22T08:01:12.362Z,4.37
2023-02-22T08:03:39.127Z,4.31
2023-02-22T08:06:07.688Z,4.31
2023-02-22T08:08:34.608Z,4.31
2023-02-22T08:11:01.756Z,4.33
2023-02-22T08:13:28.582Z,4.36
2023-02-22T08:15:56.157Z,4.39
2023-02-22T08:18:24.768Z,4.41
2023-02-22T08:20:53.059Z,4.49
2023-02-22T08:23:22.658Z,4.56
2023-02-22T08:25:49.402Z,4.56
2023-02-22T08:28:18.132Z,4.59
2023-02-22T08:30:44.919Z,4.57
2023-02-22T08:33:14.697Z,4.53
2023-02-22T08:35:41.733Z,4.50
2023-02-22T08:38:17.590Z,4.50
2023-02-22T08:40:44.333Z,4.52
2023-02-22T08:43:11.326Z,4.48
2023-02-22T08:45:38.638Z,4.50
2023-02-22T08:48:05.552Z,4.49
2023-02-22T08:50:36.350Z,4.56
2023-02-22T08:53:05.436Z,4.56
2023-02-22T08:55:35.334Z,4.59
2023-02-22T08:58:03.262Z,4.58
2023-02-22T09:00:33.430Z,4.56
2023-02-22T09:03:03.560Z,4.54
2023-02-22T09:05:31.701Z,4.56
2023-02-22T09:07:59.328Z,4.53
2023-02-22T09:10:29.521Z,4.49
2023-02-22T09:12:56.776Z,4.56
2023-02-22T09:15:25.486Z,4.61
2023-02-22T09:17:53.314Z,4.63
2023-02-22T09:20:21.681Z,4.63
2023-02-22T09:22:49.278Z,4.65
2023-02-22T09:25:18.327Z,4.69
2023-02-22T09:27:48.352Z,4.72
2023-02-22T09:30:32.225Z,4.74
2023-02-22T09:33:10.646Z,4.73
2023-02-22T09:35:42.441Z,4.70
2023-02-22T09:38:11.527Z,4.74
2023-02-22T09:40:45.654Z,4.81
2023-02-22T09:43:36.742Z,4.88
2023-02-22T09:46:36.129Z,4.92
2023-02-22T09:49:21.497Z,4.94
2023-02-22T09:52:02.693Z,4.97
2023-02-22T09:54:40.985Z,5.00
2023-02-22T09:57:13.779Z,5.06
2023-02-22T10:00:20.217Z,5.12
2023-02-22T10:03:14.749Z,5.14
2023-02-22T10:05:46.502Z,5.20
2023-02-22T10:08:19.100Z,5.23
2023-02-22T10:10:52.990Z,5.24
2023-02-22T10:13:34.881Z,5.28
2023-02-22T10:16:05.317Z,5.36
2023-02-22T10:19:03.510Z,5.43
2023-02-22T10:22:07.888Z,5.61
2023-02-22T10:24:46.661Z,5.67
2023-02-22T10:27:23.049Z,5.67
2023-02-22T10:29:57.293Z,5.70
2023-02-22T10:32:31.510Z,5.71
2023-02-22T10:35:00.008Z,5.79
2023-02-22T10:37:28.950Z,5.90
2023-02-22T10:40:17.664Z,5.98
2023-02-22T10:42:44.657Z,6.02
2023-02-22T10:45:36.084Z,6.08
2023-02-22T10:48:08.827Z,6.05
2023-02-22T10:50:40.896Z,6.09
2023-02-22T10:53:09.021Z,6.11
2023-02-22T10:55:36.642Z,6.17
2023-02-22T10:58:07.017Z,6.22
2023-02-22T11:00:39.333Z,6.31
2023-02-22T11:03:26.331Z,6.33
2023-02-22T11:05:53.554Z,6.42
2023-02-22T11:08:32.997Z,6.52
2023-02-22T11:11:20.519Z,6.60
2023-02-22T11:13:55.553Z,6.71
2023-02-22T11:16:32.131Z,6.85
2023-02-22T11:19:03.231Z,6.94
2023-02-22T11:21:32.628Z,7.04
2023-02-22T11:24:09.172Z,7.08
2023-02-22T11:26:44.728Z,7.20
2023-02-22T11:29:22.298Z,7.32
2023-02-22T11:31:50.046Z,7.48
2023-02-22T11:34:33.545Z,7.54
2023-02-22T11:37:26.075Z,7.56
2023-02-22T11:40:12.284Z,7.64
2023-02-22T11:42:39.100Z,7.70
2023-02-22T11:45:14.968Z,7.71
2023-02-22T11:47:55.532Z,7.70
2023-02-22T11:50:51.868Z,7.71
2023-02-22T11:53:46.411Z,7.70
2023-02-22T11:56:38.352Z,7.69
2023-02-22T11:59:32.677Z,7.71
2023-02-22T12:02:39.967Z,7.71
2023-02-22T12:05:08.455Z,7.77
2023-02-22T12:07:48.729Z,7.83
2023-02-22T12:10:22.940Z,7.86
2023-02-22T12:13:27.206Z,7.90
2023-02-22T12:15:59.780Z,7.89
2023-02-22T12:19:05.437Z,7.86
2023-02-22T12:21:36.550Z,7.88
2023-02-22T12:24:14.538Z,7.98
2023-02-22T12:26:44.277Z,8.04
2023-02-22T12:29:58.531Z,8.12
2023-02-22T12:32:38.380Z,8.18
2023-02-22T12:35:10.993Z,8.19
2023-02-22T12:37:53.403Z,8.17
2023-02-22T12:40:24.116Z,8.16
2023-02-22T12:43:00.777Z,8.19
2023-02-22T12:45:43.159Z,8.25
2023-02-22T12:48:26.466Z,8.25
2023-02-22T12:50:59.233Z,8.26
2023-02-22T12:53:31.428Z,8.23
2023-02-22T12:56:31.717Z,8.26
2023-02-22T12:59:08.266Z,8.27
2023-02-22T13:01:41.215Z,8.29
2023-02-22T13:04:20.154Z,8.29
2023-02-22T13:07:02.718Z,8.32
2023-02-22T13:09:47.601Z,8.34
2023-02-22T13:12:21.179Z,8.34
2023-02-22T13:15:03.100Z,8.32
2023-02-22T13:17:54.990Z,8.28
2023-02-22T13:20:35.044Z,8.31
2023-02-22T13:23:10.661Z,8.25
2023-02-22T13:25:52.571Z,8.19
2023-02-22T13:28:32.258Z,8.08
2023-02-22T13:31:25.490Z,7.96
2023-02-22T13:34:06.836Z,7.91
2023-02-22T13:37:05.661Z,7.88
2023-02-22T13:39:32.735Z,7.88
2023-02-22T13:42:02.401Z,7.86
2023-02-22T13:44:35.139Z,7.88
2023-02-22T13:47:17.220Z,7.88
2023-02-22T13:49:52.853Z,7.88
2023-02-22T13:52:27.906Z,7.92
2023-02-22T13:55:01.161Z,7.92
2023-02-22T13:57:29.638Z,7.92
2023-02-22T14:00:14.874Z,7.95
2023-02-22T14:03:03.141Z,7.98
2023-02-22T14:05:38.431Z,7.99
2023-02-22T14:08:06.606Z,7.98
2023-02-22T14:10:44.676Z,8.05
2023-02-22T14:13:12.444Z,8.10
2023-02-22T14:15:57.805Z,8.12
2023-02-22T14:18:45.763Z,8.12
2023-02-22T14:21:16.922Z,8.15
2023-02-22T14:23:52.421Z,8.20
2023-02-22T14:26:33.316Z,8.24
2023-02-22T14:29:23.160Z,8.27
2023-02-22T14:31:52.859Z,8.26
2023-02-22T14:34:22.898Z,8.28
2023-02-22T14:36:58.391Z,8.29
2023-02-22T14:39:38.474Z,8.37
2023-02-22T14:42:12.649Z,8.43
2023-02-22T14:45:03.140Z,8.52
2023-02-22T14:47:40.033Z,8.49
2023-02-22T14:50:45.327Z,8.52
2023-02-22T14:53:47.282Z,8.51
2023-02-22T14:56:23.200Z,8.52
2023-02-22T14:59:08.091Z,8.53
2023-02-22T15:01:52.767Z,8.48
2023-02-22T15:04:28.024Z,8.47
2023-02-22T15:06:57.175Z,8.49
2023-02-22T15:09:32.973Z,8.56
2023-02-22T15:12:14.427Z,8.65
2023-02-22T15:14:41.940Z,8.79
2023-02-22T15:17:22.594Z,8.88
2023-02-22T15:19:50.119Z,8.82
2023-02-22T15:22:24.457Z,8.74
2023-02-22T15:25:02.799Z,8.72
2023-02-22T15:27:29.785Z,8.67
2023-02-22T15:30:00.304Z,8.58
2023-02-22T15:32:53.402Z,8.52
2023-02-22T15:35:30.301Z,8.42
2023-02-22T15:38:12.362Z,8.37
2023-02-22T15:40:43.348Z,8.35
2023-02-22T15:43:28.557Z,8.30
2023-02-22T15:45:56.633Z,8.27
2023-02-22T15:48:26.282Z,8.21
2023-02-22T15:51:04.360Z,8.16
2023-02-22T15:53:45.401Z,8.13
2023-02-22T15:56:18.396Z,8.12
2023-02-22T15:58:48.271Z,8.12
2023-02-22T16:01:19.189Z,8.10
2023-02-22T16:03:50.588Z,8.08
2023-02-22T16:06:35.436Z,8.04
2023-02-22T16:09:09.864Z,7.95
2023-02-22T16:11:44.285Z,7.89
2023-02-22T16:14:44.996Z,7.80
2023-02-22T16:17:35.843Z,7.72
2023-02-22T16:20:11.744Z,7.67
2023-02-22T16:22:40.205Z,7.62
2023-02-22T16:25:18.862Z,7.60
2023-02-22T16:27:50.304Z,7.58
2023-02-22T16:30:24.390Z,7.58
2023-02-22T16:32:53.156Z,7.54
2023-02-22T16:35:19.966Z,7.51
2023-02-22T16:37:49.459Z,7.49
2023-02-22T16:40:34.670Z,7.47
2023-02-22T16:43:04.483Z,7.43
2023-02-22T16:45:31.287Z,7.40
2023-02-22T16:47:59.972Z,7.34
2023-02-22T16:50:26.903Z,7.34
2023-02-22T16:52:55.775Z,7.34
2023-02-22T16:55:23.062Z,7.35
2023-02-22T16:57:50.790Z,7.34
2023-02-22T17:00:31.352Z,7.34
2023-02-22T17:02:59.934Z,7.34
2023-02-22T17:05:27.107Z,7.38
2023-02-22T17:07:53.899Z,7.36
2023-02-22T17:10:20.804Z,7.38
2023-02-22T17:12:50.121Z,7.40
2023-02-22T17:15:21.484Z,7.42
2023-02-22T17:17:50.112Z,7.42
2023-02-22T17:20:24.959Z,7.36
2023-02-22T17:22:52.240Z,7.25
2023-02-22T17:25:23.044Z,7.17
2023-02-22T17:27:49.982Z,7.07
2023-02-22T17:30:18.136Z,6.98
2023-02-22T17:32:44.895Z,6.89
2023-02-22T17:35:11.597Z,6.84
2023-02-22T17:37:38.432Z,6.81
2023-02-22T17:40:05.465Z,6.75
2023-02-22T17:42:32.483Z,6.74
2023-02-22T17:44:59.276Z,6.73
2023-02-22T17:47:26.057Z,6.70
2023-02-22T17:49:52.958Z,6.69
2023-02-22T17:52:19.764Z,6.71
2023-02-22T17:54:46.445Z,6.70
2023-02-22T17:57:13.148Z,6.63
2023-02-22T17:59:40.690Z,6.44
2023-02-22T18:02:07.742Z,6.31
2023-02-22T18:04:39.666Z,6.17
2023-02-22T18:07:06.691Z,6.07
2023-02-22T18:09:35.756Z,5.99
2023-02-22T18:12:02.818Z,5.92
2023-02-22T18:14:29.770Z,5.86
2023-02-22T18:16:56.622Z,5.81
2023-02-22T18:19:23.467Z,5.81
2023-02-22T18:21:50.305Z,5.79
2023-02-22T18:24:17.519Z,5.76
2023-02-22T18:26:44.284Z,5.71
2023-02-22T18:29:12.438Z,5.69
2023-02-22T18:31:39.225Z,5.63
2023-02-22T18:34:06.527Z,5.54
2023-02-22T18:36:33.253Z,5.51
2023-02-22T18:38:59.950Z,5.46
2023-02-22T18:41:27.101Z,5.46
2023-02-22T18:43:55.638Z,5.45
2023-02-22T18:46:23.773Z,5.50
2023-02-22T18:48:54.317Z,5.53
2023-02-22T18:51:21.119Z,5.60
2023-02-22T18:53:50.197Z,5.64
2023-02-22T18:56:22.161Z,5.64
2023-02-22T18:58:53.830Z,5.63
2023-02-22T19:01:22.206Z,5.61
2023-02-22T19:03:51.968Z,5.57
2023-02-22T19:06:22.640Z,5.52
2023-02-22T19:08:51.174Z,5.47
2023-02-22T19:11:22.132Z,5.45
2023-02-22T19:13:51.987Z,5.40
2023-02-22T19:16:20.890Z,5.41
2023-02-22T19:18:52.637Z,5.42
2023-02-22T19:21:20.972Z,5.42
2023-02-22T19:23:49.093Z,5.45
2023-02-22T19:26:24.089Z,5.44
2023-02-22T19:28:53.568Z,5.44
2023-02-22T19:31:30.582Z,5.45
2023-02-22T19:34:05.630Z,5.47
2023-02-22T19:36:33.143Z,5.49
2023-02-22T19:39:03.498Z,5.49
2023-02-22T19:41:31.241Z,5.49
2023-02-22T19:44:03.254Z,5.51
2023-02-22T19:46:30.620Z,5.54
2023-02-22T19:49:00.671Z,5.52
2023-02-22T19:51:30.180Z,5.52
2023-02-22T19:54:07.260Z,5.50
2023-02-22T19:56:41.157Z,5.50
2023-02-22T19:59:13.615Z,5.48
2023-02-22T20:01:41.795Z,5.47
2023-02-22T20:04:11.073Z,5.46
2023-02-22T20:06:42.692Z,5.42
2023-02-22T20:09:13.810Z,5.37
2023-02-22T20:11:40.811Z,5.34
2023-02-22T20:14:08.185Z,5.30
2023-02-22T20:16:37.884Z,5.28
2023-02-22T20:19:04.669Z,5.25
2023-02-22T20:21:34.007Z,5.22
2023-02-22T20:24:03.378Z,5.20
2023-02-22T20:26:32.045Z,5.18
2023-02-22T20:28:59.703Z,5.18
2023-02-22T20:31:29.396Z,5.18
2023-02-22T20:33:58.595Z,5.16
2023-02-22T20:36:26.585Z,5.19
2023-02-22T20:38:55.564Z,5.23
2023-02-22T20:41:26.478Z,5.26
2023-02-22T20:43:55.420Z,5.30
2023-02-22T20:46:24.150Z,5.31
2023-02-22T20:48:58.855Z,5.35
2023-02-22T20:51:26.986Z,5.35
2023-02-22T20:53:54.171Z,5.36
2023-02-22T20:56:23.273Z,5.35
2023-02-22T20:58:52.670Z,5.34
2023-02-22T21:01:23.563Z,5.34
2023-02-22T21:03:50.843Z,5.33
2023-02-22T21:06:21.769Z,5.31
2023-02-22T21:08:54.097Z,5.29
2023-02-22T21:11:21.516Z,5.23
2023-02-22T21:13:48.433Z,5.18
2023-02-22T21:16:27.974Z,5.16
2023-02-22T21:18:58.589Z,5.15
2023-02-22T21:21:26.309Z,5.18
2023-02-22T21:23:55.806Z,5.20
2023-02-22T21:26:29.782Z,5.21
2023-02-22T21:29:00.986Z,5.20
2023-02-22T21:31:28.746Z,5.19
2023-02-22T21:33:59.471Z,5.16
2023-02-22T21:36:31.011Z,5.18
2023-02-22T21:39:02.734Z,5.19
2023-02-22T21:41:34.680Z,5.20
2023-02-22T21:44:01.677Z,5.22
2023-02-22T21:46:30.478Z,5.24
2023-02-22T21:48:58.975Z,5.25
2023-02-22T21:51:35.590Z,5.27
2023-02-22T21:54:07.406Z,5.29
2023-02-22T21:56:40.446Z,5.29
2023-02-22T21:59:23.481Z,5.30
2023-02-22T22:01:55.989Z,5.32
2023-02-22T22:04:28.647Z,5.33
2023-02-22T22:06:58.137Z,5.33
2023-02-22T22:09:28.966Z,5.31
2023-02-22T22:11:58.488Z,5.29
2023-02-22T22:14:27.215Z,5.29
2023-02-22T22:16:58.776Z,5.26
2023-02-22T22:19:27.300Z,5.27
2023-02-22T22:21:54.246Z,5.27
2023-02-22T22:24:23.771Z,5.28
2023-02-22T22:26:55.017Z,5.27
2023-02-22T22:29:28.589Z,5.27
2023-02-22T22:31:55.959Z,5.27
2023-02-22T22:34:29.508Z,5.28
2023-02-22T22:37:00.596Z,5.24
2023-02-22T22:39:27.831Z,5.20
2023-02-22T22:41:55.201Z,5.17
2023-02-22T22:44:22.545Z,5.16
2023-02-22T22:46:53.630Z,5.16
2023-02-22T22:49:21.040Z,5.14
2023-02-22T22:51:48.423Z,5.12
2023-02-22T22:54:15.230Z,5.10
2023-02-22T22:56:42.172Z,5.08
2023-02-22T22:59:10.580Z,5.09
2023-02-22T23:01:40.805Z,5.05
2023-02-22T23:04:10.430Z,5.03
2023-02-22T23:06:40.163Z,5.02
2023-02-22T23:09:13.506Z,4.99
2023-02-22T23:12:16.675Z,4.97
2023-02-22T23:14:45.481Z,4.90
2023-02-22T23:17:15.384Z,4.87
2023-02-22T23:19:46.841Z,4.84
2023-02-22T23:22:14.512Z,4.81
2023-02-22T23:24:41.572Z,4.80
2023-02-22T23:27:10.992Z,4.79
2023-02-22T23:29:40.732Z,4.76
2023-02-22T23:32:10.027Z,4.70
2023-02-22T23:34:41.282Z,4.67
2023-02-22T23:37:10.637Z,4.63
2023-02-22T23:39:38.515Z,4.57
2023-02-22T23:42:09.195Z,4.54
2023-02-22T23:44:36.350Z,4.53
2023-02-22T23:47:03.998Z,4.51
2023-02-22T23:49:38.153Z,4.45
2023-02-22T23:52:06.623Z,4.39
2023-02-22T23:54:36.604Z,4.35
2023-02-22T23:57:04.633Z,4.28
2023-02-22T23:59:32.036Z,4.22
